createdAt,value
2017-09-14T00:00:17.269Z,99.90
2017-09-14T00:02:44.886Z,99.90
2017-09-14T00:05:12.496Z,99.90
2017-09-14T00:07:40.111Z,99.90
2017-09-14T00:10:07.718Z,99.90
2017-09-14T00:12:35.337Z,99.90
2017-09-14T00:15:02.904Z,99.90
2017-09-14T00:17:30.512Z,99.90
2017-09-14T00:19:58.894Z,99.90
2017-09-14T00:22:27.275Z,99.90
2017-09-14T00:24:55.659Z,99.90
2017-09-14T00:27:24.045Z,99.90
2017-09-14T00:29:51.685Z,99.90
2017-09-14T00:32:19.316Z,99.90
2017-09-14T00:34:47.018Z,99.90
2017-09-14T00:37:15.381Z,99.90
2017-09-14T00:39:42.952Z,99.90
2017-09-14T00:42:11.291Z,99.90
2017-09-14T00:44:38.864Z,99.90
2017-09-14T00:47:06.438Z,99.90
2017-09-14T00:49:34.055Z,99.90
2017-09-14T00:52:01.698Z,99.90
2017-09-14T00:54:29.314Z,99.90
2017-09-14T00:56:56.942Z,99.90
2017-09-14T00:59:24.558Z,99.90
2017-09-14T01:01:52.180Z,99.90
2017-09-14T01:04:20.953Z,99.90
2017-09-14T01:06:48.571Z,99.90
2017-09-14T01:09:16.954Z,99.90
2017-09-14T01:11:45.341Z,99.90
2017-09-14T01:14:13.746Z,99.90
2017-09-14T01:16:41.315Z,99.90
2017-09-14T01:19:08.931Z,99.90
2017-09-14T01:21:37.340Z,99.90
2017-09-14T01:24:05.016Z,99.90
2017-09-14T01:26:32.676Z,99.90
2017-09-14T01:29:00.267Z,99.90
2017-09-14T01:31:27.913Z,99.90
2017-09-14T01:33:55.550Z,99.90
2017-09-14T01:36:23.178Z,99.90
2017-09-14T01:38:50.762Z,99.90
2017-09-14T01:41:18.411Z,99.90
2017-09-14T01:43:46.024Z,99.90
2017-09-14T01:46:13.691Z,99.90
2017-09-14T01:48:41.310Z,99.90
2017-09-14T01:51:08.932Z,99.90
2017-09-14T01:53:36.541Z,99.90
2017-09-14T01:56:04.114Z,99.90
2017-09-14T01:58:31.734Z,99.90
2017-09-14T02:00:59.357Z,99.90
2017-09-14T02:03:26.970Z,99.90
2017-09-14T02:05:54.591Z,99.90
2017-09-14T02:08:22.225Z,99.90
2017-09-14T02:10:49.798Z,99.90
2017-09-14T02:13:17.408Z,99.90
2017-09-14T02:15:45.023Z,99.90
2017-09-14T02:18:12.688Z,99.90
2017-09-14T02:20:40.298Z,99.90
2017-09-14T02:23:07.909Z,99.90
2017-09-14T02:25:35.514Z,99.90
2017-09-14T02:28:03.893Z,99.90
2017-09-14T02:30:31.472Z,99.90
2017-09-14T02:32:59.098Z,99.90
2017-09-14T02:35:26.676Z,99.90
2017-09-14T02:37:55.056Z,99.90
2017-09-14T02:40:22.679Z,99.90
2017-09-14T02:42:50.298Z,99.90
2017-09-14T02:45:17.963Z,99.90
2017-09-14T02:47:45.576Z,99.90
2017-09-14T02:50:13.157Z,99.90
2017-09-14T02:52:41.535Z,99.90
2017-09-14T02:55:09.918Z,99.90
2017-09-14T02:57:37.535Z,99.90
2017-09-14T03:00:05.145Z,99.90
2017-09-14T03:02:33.518Z,99.90
2017-09-14T03:05:01.850Z,99.90
2017-09-14T03:07:29.422Z,99.90
2017-09-14T03:09:57.057Z,99.90
2017-09-14T03:12:25.452Z,99.90
2017-09-14T03:14:53.067Z,99.90
2017-09-14T03:17:20.678Z,99.90
2017-09-14T03:19:48.291Z,99.90
2017-09-14T03:22:15.899Z,99.90
2017-09-14T03:24:43.474Z,99.90
2017-09-14T03:27:11.087Z,99.90
2017-09-14T03:29:38.669Z,99.90
2017-09-14T03:32:06.266Z,99.90
2017-09-14T03:34:33.889Z,99.90
2017-09-14T03:37:01.515Z,99.90
2017-09-14T03:39:29.106Z,99.90
2017-09-14T03:41:56.719Z,99.90
2017-09-14T03:44:24.342Z,99.90
2017-09-14T03:46:51.926Z,99.90
2017-09-14T03:49:19.504Z,99.90
2017-09-14T03:51:47.870Z,99.90
2017-09-14T03:54:15.488Z,99.90
2017-09-14T03:56:43.060Z,99.90
2017-09-14T03:59:10.666Z,99.90
2017-09-14T04:01:39.037Z,99.90
2017-09-14T04:04:07.425Z,99.90
2017-09-14T04:06:35.053Z,99.90
2017-09-14T04:09:02.675Z,99.90
2017-09-14T04:11:30.386Z,99.90
2017-09-14T04:13:58.022Z,99.90
2017-09-14T04:16:25.631Z,99.90
2017-09-14T04:18:53.258Z,99.90
2017-09-14T04:21:21.615Z,99.90
2017-09-14T04:23:49.313Z,99.90
2017-09-14T04:26:16.932Z,99.90
2017-09-14T04:28:44.622Z,99.90
2017-09-14T04:31:12.620Z,99.90
2017-09-14T04:33:41.080Z,99.90
2017-09-14T04:36:08.658Z,99.90
2017-09-14T04:38:36.203Z,99.90
2017-09-14T04:41:04.117Z,99.90
2017-09-14T04:43:31.734Z,99.90
2017-09-14T04:45:59.356Z,99.90
2017-09-14T04:48:26.941Z,99.90
2017-09-14T04:50:55.093Z,99.90
2017-09-14T04:53:22.668Z,99.90
2017-09-14T04:55:50.359Z,99.90
2017-09-14T04:58:17.964Z,99.90
2017-09-14T05:00:45.537Z,99.90
2017-09-14T05:03:13.401Z,99.90
2017-09-14T05:05:41.014Z,99.90
2017-09-14T05:08:09.467Z,99.90
2017-09-14T05:10:37.847Z,99.90
2017-09-14T05:13:05.535Z,99.90
2017-09-14T05:15:33.118Z,99.90
2017-09-14T05:18:01.460Z,99.90
2017-09-14T05:20:29.069Z,99.90
2017-09-14T05:22:56.702Z,99.90
2017-09-14T05:25:25.115Z,99.90
2017-09-14T05:27:52.707Z,99.90
2017-09-14T05:30:20.301Z,99.90
2017-09-14T05:32:48.734Z,99.90
2017-09-14T05:35:16.310Z,99.90
2017-09-14T05:37:43.971Z,99.90
2017-09-14T05:40:11.591Z,99.90
2017-09-14T05:42:39.203Z,99.90
2017-09-14T05:45:06.849Z,99.90
2017-09-14T05:47:34.460Z,99.90
2017-09-14T05:50:02.046Z,99.90
2017-09-14T05:52:29.668Z,99.90
2017-09-14T05:54:57.278Z,99.90
2017-09-14T05:57:24.857Z,99.80
2017-09-14T05:59:52.491Z,99.60
2017-09-14T06:02:20.074Z,98.60
2017-09-14T06:04:47.694Z,97.30
2017-09-14T06:07:15.277Z,97.20
2017-09-14T06:09:42.859Z,97.40
2017-09-14T06:12:10.445Z,98.00
2017-09-14T06:14:38.061Z,98.00
2017-09-14T06:17:05.738Z,98.30
2017-09-14T06:19:33.376Z,98.10
2017-09-14T06:22:00.994Z,97.90
2017-09-14T06:24:28.569Z,96.10
2017-09-14T06:26:56.950Z,96.20
2017-09-14T06:29:24.539Z,96.20
2017-09-14T06:31:52.158Z,96.20
2017-09-14T06:34:19.793Z,95.60
2017-09-14T06:36:47.404Z,95.50
2017-09-14T06:39:15.746Z,95.30
2017-09-14T06:41:43.402Z,95.30
2017-09-14T06:44:11.015Z,95.60
2017-09-14T06:46:38.591Z,96.60
2017-09-14T06:49:06.201Z,96.80
2017-09-14T06:51:33.779Z,95.70
2017-09-14T06:54:02.156Z,95.90
2017-09-14T06:56:30.547Z,95.60
2017-09-14T06:58:58.935Z,95.50
2017-09-14T07:01:26.505Z,95.50
2017-09-14T07:03:54.147Z,95.10
2017-09-14T07:06:22.528Z,95.30
2017-09-14T07:08:50.876Z,95.30
2017-09-14T07:11:18.474Z,95.20
2017-09-14T07:13:46.095Z,96.00
2017-09-14T07:16:13.714Z,96.00
2017-09-14T07:18:41.247Z,95.10
2017-09-14T07:21:08.850Z,95.10
2017-09-14T07:23:36.458Z,95.40
2017-09-14T07:26:04.067Z,95.10
2017-09-14T07:28:31.679Z,95.20
2017-09-14T07:31:00.016Z,94.90
2017-09-14T07:33:27.651Z,94.90
2017-09-14T07:35:55.333Z,92.70
2017-09-14T07:38:22.952Z,90.80
2017-09-14T07:40:50.567Z,91.00
2017-09-14T07:43:18.177Z,91.00
2017-09-14T07:45:46.578Z,91.90
2017-09-14T07:48:14.192Z,92.30
2017-09-14T07:50:41.819Z,92.00
2017-09-14T07:53:09.476Z,91.90
2017-09-14T07:55:37.097Z,92.30
2017-09-14T07:58:04.711Z,92.80
2017-09-14T08:00:32.286Z,91.80
2017-09-14T08:02:59.872Z,92.20
2017-09-14T08:05:28.241Z,91.90
2017-09-14T08:07:55.874Z,91.90
2017-09-14T08:10:23.504Z,92.10
2017-09-14T08:12:51.118Z,91.80
2017-09-14T08:15:18.753Z,92.00
2017-09-14T08:17:46.369Z,91.20
2017-09-14T08:20:14.010Z,91.10
2017-09-14T08:22:41.671Z,90.20
2017-09-14T08:25:09.281Z,90.40
2017-09-14T08:27:36.910Z,90.00
2017-09-14T08:30:04.543Z,90.50
2017-09-14T08:32:32.151Z,90.30
2017-09-14T08:34:59.735Z,89.10
2017-09-14T08:37:27.352Z,89.80
2017-09-14T08:39:54.989Z,90.00
2017-09-14T08:42:22.602Z,89.60
2017-09-14T08:44:50.215Z,89.60
2017-09-14T08:47:17.826Z,89.80
2017-09-14T08:49:45.412Z,88.20
2017-09-14T08:52:13.030Z,89.60
2017-09-14T08:54:40.655Z,89.40
2017-09-14T08:57:08.274Z,88.70
2017-09-14T08:59:35.918Z,88.30
2017-09-14T09:02:03.547Z,88.70
2017-09-14T09:04:31.190Z,88.30
2017-09-14T09:06:58.830Z,87.60
2017-09-14T09:09:26.518Z,88.20
2017-09-14T09:11:54.136Z,88.90
2017-09-14T09:14:21.766Z,87.70
2017-09-14T09:16:50.149Z,90.20
2017-09-14T09:19:17.789Z,90.20
2017-09-14T09:21:45.425Z,86.70
2017-09-14T09:24:13.063Z,87.20
2017-09-14T09:26:40.679Z,84.70
2017-09-14T09:29:08.262Z,83.70
2017-09-14T09:34:09.610Z,81.60
2017-09-14T09:36:37.230Z,83.40
2017-09-14T09:39:04.875Z,84.50
2017-09-14T09:41:32.487Z,84.50
2017-09-14T09:44:00.103Z,85.30
2017-09-14T09:46:27.731Z,86.30
2017-09-14T09:48:55.345Z,86.40
2017-09-14T09:51:22.954Z,88.40
2017-09-14T09:53:50.560Z,85.60
2017-09-14T09:56:18.137Z,88.40
2017-09-14T09:58:45.743Z,88.00
2017-09-14T10:01:14.117Z,86.80
2017-09-14T10:03:42.483Z,86.70
2017-09-14T10:06:10.863Z,88.10
2017-09-14T10:08:39.250Z,89.00
2017-09-14T10:11:06.865Z,89.10
2017-09-14T10:13:34.469Z,87.80
2017-09-14T10:16:02.075Z,89.20
2017-09-14T10:18:29.640Z,88.40
2017-09-14T10:20:57.246Z,89.30
2017-09-14T10:23:25.118Z,90.10
2017-09-14T10:25:52.791Z,90.00
2017-09-14T10:28:20.408Z,90.20
2017-09-14T10:30:48.029Z,90.50
2017-09-14T10:33:15.658Z,90.60
2017-09-14T10:35:44.058Z,89.60
2017-09-14T10:38:11.684Z,89.60
2017-09-14T10:40:39.283Z,89.20
2017-09-14T10:43:06.885Z,88.60
2017-09-14T10:45:34.487Z,89.00
2017-09-14T10:48:02.167Z,88.60
2017-09-14T10:50:29.755Z,86.40
2017-09-14T10:52:57.406Z,84.80
2017-09-14T10:55:25.786Z,83.70
2017-09-14T10:57:53.394Z,83.70
2017-09-14T11:00:20.998Z,84.40
2017-09-14T11:02:48.638Z,83.10
2017-09-14T11:05:16.225Z,83.90
2017-09-14T11:07:43.862Z,85.10
2017-09-14T11:10:11.477Z,86.90
2017-09-14T11:12:39.070Z,87.10
2017-09-14T11:15:07.492Z,88.80
2017-09-14T11:17:35.149Z,88.00
2017-09-14T11:20:02.763Z,88.40
2017-09-14T11:22:30.387Z,87.70
2017-09-14T11:24:57.991Z,88.90
2017-09-14T11:27:25.613Z,89.00
2017-09-14T11:29:53.230Z,89.00
2017-09-14T11:32:22.112Z,88.10
2017-09-14T11:34:49.754Z,87.70
2017-09-14T11:37:17.398Z,88.20
2017-09-14T11:39:45.010Z,87.90
2017-09-14T11:42:13.351Z,87.60
2017-09-14T11:44:41.018Z,87.50
2017-09-14T11:47:09.412Z,87.50
2017-09-14T11:49:37.978Z,87.00
2017-09-14T11:52:05.611Z,86.90
2017-09-14T11:54:33.184Z,87.80
2017-09-14T11:57:00.825Z,87.40
2017-09-14T11:59:28.494Z,88.10
2017-09-14T12:01:56.121Z,87.60
2017-09-14T12:04:24.511Z,88.20
2017-09-14T12:06:52.131Z,88.20
2017-09-14T12:09:19.754Z,87.60
2017-09-14T12:11:47.466Z,87.60
2017-09-14T12:14:15.850Z,89.60
2017-09-14T12:16:44.158Z,88.10
2017-09-14T12:19:11.822Z,88.00
2017-09-14T12:21:39.449Z,87.10
2017-09-14T12:24:07.825Z,88.90
2017-09-14T12:26:35.419Z,88.30
2017-09-14T12:29:03.051Z,89.00
2017-09-14T12:31:31.401Z,89.00
2017-09-14T12:33:59.004Z,89.00
2017-09-14T12:36:26.558Z,89.90
2017-09-14T12:38:54.169Z,90.90
2017-09-14T12:41:21.783Z,90.50
2017-09-14T12:43:49.369Z,91.10
2017-09-14T12:46:16.998Z,91.50
2017-09-14T12:48:44.608Z,91.80
2017-09-14T12:51:12.231Z,92.50
2017-09-14T12:53:40.626Z,92.10
2017-09-14T12:56:08.601Z,92.10
2017-09-14T12:58:36.282Z,91.90
2017-09-14T13:01:03.898Z,92.10
2017-09-14T13:03:31.490Z,92.10
2017-09-14T13:05:59.082Z,93.10
2017-09-14T13:08:26.702Z,92.40
2017-09-14T13:10:54.335Z,92.50
2017-09-14T13:13:22.064Z,92.30
2017-09-14T13:15:49.689Z,92.90
2017-09-14T13:18:17.306Z,93.10
2017-09-14T13:20:47.137Z,92.80
2017-09-14T13:23:14.858Z,93.30
2017-09-14T13:25:42.442Z,93.30
2017-09-14T13:28:10.132Z,93.70
2017-09-14T13:30:37.713Z,93.80
2017-09-14T13:33:05.363Z,94.20
2017-09-14T13:35:32.978Z,94.50
2017-09-14T13:38:00.598Z,94.80
2017-09-14T13:40:28.251Z,95.60
2017-09-14T13:42:56.225Z,95.60
2017-09-14T13:45:23.845Z,95.70
2017-09-14T13:47:51.516Z,96.00
2017-09-14T13:50:19.147Z,96.20
2017-09-14T13:52:46.763Z,96.20
2017-09-14T13:55:14.433Z,96.20
2017-09-14T13:57:42.091Z,96.20
2017-09-14T14:00:09.791Z,96.40
2017-09-14T14:02:37.517Z,96.80
2017-09-14T14:05:05.089Z,96.90
2017-09-14T14:07:32.793Z,97.10
2017-09-14T14:10:01.239Z,98.50
2017-09-14T14:12:28.875Z,98.40
2017-09-14T14:14:57.479Z,98.60
2017-09-14T14:17:29.009Z,98.90
2017-09-14T14:19:57.225Z,98.50
2017-09-14T14:22:24.803Z,98.70
2017-09-14T14:24:52.916Z,99.20
2017-09-14T14:27:20.712Z,98.90
2017-09-14T14:29:48.295Z,98.90
2017-09-14T14:32:16.333Z,99.10
2017-09-14T14:34:44.001Z,98.50
2017-09-14T14:37:11.627Z,98.70
2017-09-14T14:39:39.259Z,98.30
2017-09-14T14:42:07.042Z,98.80
2017-09-14T14:44:35.042Z,98.50
2017-09-14T14:47:02.723Z,98.30
2017-09-14T14:49:31.063Z,98.50
2017-09-14T14:51:58.703Z,98.60
2017-09-14T14:54:31.304Z,98.00
2017-09-14T14:56:59.681Z,97.40
2017-09-14T14:59:28.166Z,98.10
2017-09-14T15:01:56.482Z,98.10
2017-09-14T15:04:25.213Z,97.90
2017-09-14T15:06:53.319Z,97.30
2017-09-14T15:09:20.946Z,97.10
2017-09-14T15:11:48.520Z,97.40
2017-09-14T15:14:16.861Z,97.80
2017-09-14T15:16:44.451Z,97.70
2017-09-14T15:19:12.073Z,98.30
2017-09-14T15:21:39.738Z,97.40
2017-09-14T15:24:07.383Z,97.70
2017-09-14T15:26:35.148Z,97.20
2017-09-14T15:29:02.752Z,98.40
2017-09-14T15:31:30.387Z,97.50
2017-09-14T15:33:58.014Z,98.40
2017-09-14T15:36:25.718Z,98.00
2017-09-14T15:38:59.027Z,97.60
2017-09-14T15:41:32.830Z,97.50
2017-09-14T15:44:06.122Z,97.90
2017-09-14T15:46:33.984Z,96.90
2017-09-14T15:49:07.366Z,97.00
2017-09-14T15:51:40.666Z,97.20
2017-09-14T15:54:08.310Z,96.80
2017-09-14T15:56:35.950Z,96.80
2017-09-14T15:59:03.539Z,96.20
2017-09-14T16:01:31.175Z,96.20
2017-09-14T16:03:58.790Z,95.30
2017-09-14T16:06:29.780Z,95.70
2017-09-14T16:08:57.725Z,96.20
2017-09-14T16:11:25.410Z,96.20
2017-09-14T16:13:52.997Z,95.30
2017-09-14T16:16:21.577Z,95.30
2017-09-14T16:18:49.450Z,94.90
2017-09-14T16:21:17.116Z,94.90
2017-09-14T16:23:44.727Z,94.90
2017-09-14T16:26:13.263Z,94.80
2017-09-14T16:28:40.840Z,95.00
2017-09-14T16:31:08.457Z,94.00
2017-09-14T16:33:36.069Z,93.70
2017-09-14T16:36:03.726Z,93.70
2017-09-14T16:38:31.365Z,93.50
2017-09-14T16:40:59.063Z,93.60
2017-09-14T16:43:26.657Z,93.70
2017-09-14T16:45:54.471Z,93.30
2017-09-14T16:48:22.104Z,93.00
2017-09-14T16:50:49.834Z,93.30
2017-09-14T16:53:17.467Z,92.70
2017-09-14T16:55:45.091Z,93.50
2017-09-14T16:58:12.806Z,93.20
2017-09-14T17:00:40.375Z,93.60
2017-09-14T17:03:07.987Z,93.50
2017-09-14T17:05:35.574Z,93.40
2017-09-14T17:08:03.168Z,93.80
2017-09-14T17:10:31.558Z,93.60
2017-09-14T17:12:59.190Z,93.60
2017-09-14T17:15:26.810Z,94.10
2017-09-14T17:17:54.403Z,94.50
2017-09-14T17:20:22.028Z,94.00
2017-09-14T17:22:49.643Z,94.10
2017-09-14T17:25:17.291Z,94.20
2017-09-14T17:27:44.886Z,94.30
2017-09-14T17:30:12.726Z,94.70
2017-09-14T17:32:41.105Z,94.70
2017-09-14T17:35:09.482Z,94.80
2017-09-14T17:37:37.059Z,94.70
2017-09-14T17:40:04.687Z,94.40
2017-09-14T17:42:32.592Z,94.70
2017-09-14T17:45:01.093Z,94.40
2017-09-14T17:47:28.706Z,94.70
2017-09-14T17:49:56.330Z,94.60
2017-09-14T17:52:24.128Z,94.60
2017-09-14T17:54:51.784Z,94.70
2017-09-14T17:57:19.415Z,94.60
2017-09-14T17:59:47.043Z,94.30
2017-09-14T18:02:14.662Z,93.70
2017-09-14T18:04:42.317Z,94.00
2017-09-14T18:07:09.931Z,93.80
2017-09-14T18:09:37.605Z,94.00
2017-09-14T18:12:05.313Z,93.80
2017-09-14T18:14:33.734Z,94.00
2017-09-14T18:17:01.435Z,94.30
2017-09-14T18:19:29.269Z,94.60
2017-09-14T18:21:57.289Z,94.20
2017-09-14T18:24:24.877Z,94.50
2017-09-14T18:26:52.546Z,94.10
2017-09-14T18:29:20.958Z,93.90
2017-09-14T18:31:48.664Z,93.90
2017-09-14T18:34:16.478Z,93.80
2017-09-14T18:36:44.062Z,93.80
2017-09-14T18:39:11.678Z,93.70
2017-09-14T18:41:39.338Z,94.40
2017-09-14T18:44:06.958Z,94.20
2017-09-14T18:46:34.584Z,94.80
2017-09-14T18:49:02.190Z,95.10
2017-09-14T18:51:30.714Z,94.90
2017-09-14T18:53:58.306Z,94.90
2017-09-14T18:56:25.966Z,94.40
2017-09-14T18:58:53.630Z,94.40
2017-09-14T19:01:21.212Z,93.90
2017-09-14T19:03:48.789Z,93.90
2017-09-14T19:06:16.397Z,94.40
2017-09-14T19:08:44.100Z,93.80
2017-09-14T19:11:11.751Z,93.60
2017-09-14T19:13:39.480Z,93.90
2017-09-14T19:16:07.067Z,93.70
2017-09-14T19:18:34.688Z,93.70
2017-09-14T19:21:03.087Z,93.60
2017-09-14T19:23:30.721Z,93.60
2017-09-14T19:25:58.346Z,93.00
2017-09-14T19:28:25.946Z,92.90
2017-09-14T19:30:53.562Z,93.00
2017-09-14T19:33:21.171Z,92.30
2017-09-14T19:35:48.792Z,92.50
2017-09-14T19:38:16.407Z,92.00
2017-09-14T19:40:46.113Z,92.30
2017-09-14T19:43:13.736Z,92.40
2017-09-14T19:45:41.378Z,92.30
2017-09-14T19:48:09.040Z,92.20
2017-09-14T19:50:36.687Z,92.40
2017-09-14T19:53:04.272Z,93.00
2017-09-14T19:55:31.891Z,93.10
2017-09-14T19:57:59.502Z,93.00
2017-09-14T20:00:27.131Z,93.00
2017-09-14T20:02:54.778Z,93.00
2017-09-14T20:05:22.443Z,93.00
2017-09-14T20:07:50.020Z,92.80
2017-09-14T20:10:17.651Z,92.80
2017-09-14T20:12:45.229Z,93.10
2017-09-14T20:15:12.882Z,92.90
2017-09-14T20:17:40.505Z,93.20
2017-09-14T20:20:08.122Z,93.50
2017-09-14T20:22:35.723Z,93.60
2017-09-14T20:25:03.342Z,93.70
2017-09-14T20:27:30.927Z,94.10
2017-09-14T20:29:58.517Z,94.00
2017-09-14T20:32:26.141Z,94.50
2017-09-14T20:34:53.741Z,94.30
2017-09-14T20:37:21.439Z,94.40
2017-09-14T20:39:49.142Z,94.10
2017-09-14T20:42:16.806Z,94.50
2017-09-14T20:44:44.468Z,94.20
2017-09-14T20:47:12.073Z,94.00
2017-09-14T20:49:39.663Z,94.00
2017-09-14T20:52:07.249Z,94.00
2017-09-14T20:54:34.876Z,94.00
2017-09-14T20:57:02.499Z,94.00
2017-09-14T20:59:30.879Z,93.30
2017-09-14T21:01:58.507Z,93.30
2017-09-14T21:04:26.119Z,93.00
2017-09-14T21:06:53.727Z,92.80
2017-09-14T21:09:21.353Z,92.90
2017-09-14T21:11:48.966Z,92.90
2017-09-14T21:14:16.580Z,92.90
2017-09-14T21:16:44.202Z,92.80
2017-09-14T21:19:11.783Z,93.00
2017-09-14T21:21:39.395Z,92.90
2017-09-14T21:24:07.015Z,92.50
2017-09-14T21:26:34.604Z,92.40
2017-09-14T21:29:02.226Z,92.70
2017-09-14T21:31:29.859Z,92.80
2017-09-14T21:33:57.443Z,93.80
2017-09-14T21:36:25.802Z,93.00
2017-09-14T21:38:53.425Z,93.00
2017-09-14T21:41:21.002Z,92.50
2017-09-14T21:43:48.622Z,93.20
2017-09-14T21:46:16.245Z,92.40
2017-09-14T21:48:44.683Z,92.70
2017-09-14T21:51:12.297Z,92.50
2017-09-14T21:53:39.932Z,92.10
2017-09-14T21:56:07.534Z,92.60
2017-09-14T21:58:35.163Z,92.70
2017-09-14T22:01:04.343Z,92.50
2017-09-14T22:03:32.670Z,93.20
2017-09-14T22:06:00.256Z,93.60
2017-09-14T22:08:27.851Z,93.70
2017-09-14T22:10:55.463Z,93.40
2017-09-14T22:13:23.054Z,93.50
2017-09-14T22:15:50.677Z,94.30
2017-09-14T22:18:19.282Z,93.90
2017-09-14T22:20:46.898Z,94.60
2017-09-14T22:23:14.515Z,94.70
2017-09-14T22:25:42.127Z,94.80
2017-09-14T22:28:11.333Z,95.40
2017-09-14T22:30:39.754Z,95.60
2017-09-14T22:33:07.361Z,95.60
2017-09-14T22:35:34.982Z,95.90
2017-09-14T22:38:02.595Z,96.50
2017-09-14T22:40:30.209Z,97.00
2017-09-14T22:42:58.317Z,97.70
2017-09-14T22:45:27.273Z,99.00
2017-09-14T22:47:55.215Z,99.00
2017-09-14T22:50:24.368Z,98.70
2017-09-14T22:52:51.974Z,98.10
2017-09-14T22:55:19.556Z,99.40
2017-09-14T22:57:47.167Z,99.40
2017-09-14T23:00:14.750Z,99.30
2017-09-14T23:02:42.408Z,99.50
2017-09-14T23:05:10.987Z,99.20
2017-09-14T23:07:38.610Z,99.40
2017-09-14T23:10:06.282Z,99.90
2017-09-14T23:12:33.965Z,99.90
2017-09-14T23:15:01.571Z,99.90
2017-09-14T23:17:29.177Z,99.90
2017-09-14T23:19:56.787Z,99.90
2017-09-14T23:22:24.596Z,99.90
2017-09-14T23:24:52.239Z,99.90
2017-09-14T23:27:19.810Z,99.90
2017-09-14T23:29:47.390Z,99.90
2017-09-14T23:32:14.972Z,99.90
2017-09-14T23:34:42.513Z,99.90
2017-09-14T23:37:10.886Z,99.90
2017-09-14T23:39:38.500Z,99.90
2017-09-14T23:42:06.106Z,99.90
2017-09-14T23:44:34.487Z,99.90
2017-09-14T23:47:02.835Z,99.90
2017-09-14T23:49:30.444Z,99.90
2017-09-14T23:51:58.056Z,99.90
2017-09-14T23:54:25.722Z,99.90
2017-09-14T23:56:53.302Z,99.90
2017-09-14T23:59:20.899Z,99.90
